Time;durP1;ratioP1;P1;durP2;ratioP2;P2;SDS_P1;SDS_P2;PMS_P1;PMS_P2;Temp;Humidity;BMP_temperature;BMP_pressure;BME280_temperature;BME280_humidity;BME280_pressure;Samples;Min_cycle;Max_cycle;Signal;HPM_P1;HPM_P2
2022/12/12 00:01:17;;;;;;;32.65;21.27;;;;;;;-3.16;100.00;101123.19;4981053;28;20681;-47
2022/12/12 00:03:43;;;;;;;32.67;20.17;;;;;;;-3.08;100.00;101122.47;4987138;28;20275;-49
2022/12/12 00:06:08;;;;;;;31.45;20.35;;;;;;;-3.09;100.00;101118.97;4985591;28;20268;-48
2022/12/12 00:08:34;;;;;;;34.75;21.17;;;;;;;-3.06;100.00;101126.91;4989093;28;20197;-47
2022/12/12 00:10:59;;;;;;;31.63;20.90;;;;;;;-3.02;100.00;101120.00;4976376;28;20216;-47
2022/12/12 00:13:25;;;;;;;28.45;19.15;;;;;;;-3.02;100.00;101113.00;4977480;28;20256;-49
2022/12/12 00:15:50;;;;;;;28.48;18.15;;;;;;;-2.98;100.00;101122.72;4979325;28;20186;-48
2022/12/12 00:18:16;;;;;;;28.95;20.10;;;;;;;-2.96;100.00;101128.88;4975899;28;20657;-49
2022/12/12 00:20:41;;;;;;;33.08;21.80;;;;;;;-2.96;100.00;101121.00;4980805;28;20217;-49
2022/12/12 00:23:07;;;;;;;30.63;20.40;;;;;;;-2.92;100.00;101128.09;4979330;28;20256;-49
2022/12/12 00:25:32;;;;;;;29.00;19.35;;;;;;;-2.90;100.00;101122.88;4979602;28;20691;-49
2022/12/12 00:27:59;;;;;;;31.80;20.92;;;;;;;-2.97;100.00;101116.63;4981589;28;20170;-49
2022/12/12 00:30:25;;;;;;;27.25;18.30;;;;;;;-2.93;100.00;101120.19;4981143;28;20224;-49
2022/12/12 00:32:50;;;;;;;34.55;19.50;;;;;;;-2.84;100.00;101119.50;4979823;28;20178;-50
2022/12/12 00:35:16;;;;;;;28.98;18.95;;;;;;;-2.86;100.00;101126.44;4980318;28;20545;-47
2022/12/12 00:37:41;;;;;;;30.83;20.05;;;;;;;-2.91;100.00;101114.16;4980685;28;20656;-48
2022/12/12 00:40:08;;;;;;;29.05;18.92;;;;;;;-2.85;100.00;101122.97;4981107;28;20214;-43
2022/12/12 00:42:33;;;;;;;35.50;20.73;;;;;;;-2.95;100.00;101117.56;4982694;28;20266;-42
2022/12/12 00:44:59;;;;;;;30.83;20.50;;;;;;;-2.86;100.00;101121.19;4979532;28;20656;-41
2022/12/12 00:47:24;;;;;;;33.92;19.67;;;;;;;-2.82;100.00;101115.16;4977437;28;20185;-40
2022/12/12 00:49:50;;;;;;;32.97;20.38;;;;;;;-2.91;100.00;101122.00;4971826;28;20213;-43
2022/12/12 00:52:15;;;;;;;32.53;20.38;;;;;;;-2.98;100.00;101106.97;4986118;28;20188;-42
2022/12/12 00:54:41;;;;;;;31.80;20.58;;;;;;;-2.88;100.00;101112.44;4982397;28;20208;-44
2022/12/12 00:57:06;;;;;;;30.30;19.48;;;;;;;-2.87;100.00;101114.19;4979482;28;20190;-42
2022/12/12 00:59:32;;;;;;;33.58;20.83;;;;;;;-2.83;100.00;101114.28;4977066;28;20166;-43
2022/12/12 01:01:57;;;;;;;33.85;21.23;;;;;;;-2.86;100.00;101126.44;4975131;28;20198;-41
2022/12/12 01:04:23;;;;;;;29.25;18.58;;;;;;;-2.81;100.00;101119.56;4979033;28;20268;-42
2022/12/12 01:06:48;;;;;;;31.60;19.38;;;;;;;-2.90;100.00;101115.03;4978422;28;20174;-41
2022/12/12 01:09:14;;;;;;;30.88;19.52;;;;;;;-2.80;100.00;101122.25;4980472;28;20707;-42
2022/12/12 01:11:39;;;;;;;32.60;19.30;;;;;;;-2.80;100.00;101121.34;4984771;28;20196;-39
2022/12/12 01:14:06;;;;;;;31.85;20.52;;;;;;;-2.81;100.00;101119.56;4976714;28;20652;-41
2022/12/12 01:16:32;;;;;;;32.75;19.25;;;;;;;-2.72;100.00;101125.00;4986407;28;20188;-42
2022/12/12 01:18:58;;;;;;;28.05;17.30;;;;;;;-2.60;100.00;101127.88;4978356;28;20682;-39
2022/12/12 01:21:24;;;;;;;31.30;18.50;;;;;;;-2.52;100.00;101128.03;4981000;28;20255;-42
2022/12/12 01:23:50;;;;;;;27.13;18.17;;;;;;;-2.45;100.00;101127.28;4975409;28;20271;-44
2022/12/12 01:26:18;;;;;;;25.45;17.48;;;;;;;-2.51;100.00;101120.19;4977767;28;20189;-42
2022/12/12 01:28:44;;;;;;;27.05;17.35;;;;;;;-2.54;100.00;101122.75;4975610;28;20384;-41
2022/12/12 01:31:10;;;;;;;26.80;18.48;;;;;;;-2.47;100.00;101131.66;4979835;28;20194;-44
2022/12/12 01:33:36;;;;;;;25.40;16.65;;;;;;;-2.42;100.00;101130.00;4979228;28;20165;-42
2022/12/12 01:36:02;;;;;;;25.77;17.35;;;;;;;-2.24;100.00;101128.56;4977460;28;20216;-42
2022/12/12 01:38:28;;;;;;;27.58;18.50;;;;;;;-2.23;100.00;101130.31;4981910;28;20189;-44
2022/12/12 01:40:54;;;;;;;21.33;14.60;;;;;;;-1.97;100.00;101126.47;4986481;28;20221;-43
2022/12/12 01:43:22;;;;;;;20.65;13.63;;;;;;;-1.84;100.00;101124.03;4980342;28;20280;-42
2022/12/12 01:46:01;;;;;;;20.55;14.23;;;;;;;-1.83;100.00;101124.06;4973138;28;20185;-44
2022/12/12 01:48:41;;;;;;;16.75;12.90;;;;;;;-1.75;100.00;101122.47;4982799;28;20186;-42
2022/12/12 01:51:18;;;;;;;19.20;13.57;;;;;;;-1.70;100.00;101128.66;4999687;28;20211;-42
2022/12/12 01:53:44;;;;;;;14.88;11.05;;;;;;;-1.63;100.00;101136.66;4983156;28;20187;-43
2022/12/12 01:56:14;;;;;;;11.90;9.57;;;;;;;-1.60;100.00;101134.06;4976250;28;20224;-43
2022/12/12 01:58:42;;;;;;;11.25;9.50;;;;;;;-1.57;100.00;101129.75;4981738;28;20176;-41
2022/12/12 02:01:09;;;;;;;11.75;9.68;;;;;;;-1.56;100.00;101126.25;4974712;28;20209;-40
2022/12/12 02:03:35;;;;;;;16.05;10.60;;;;;;;-1.60;100.00;101139.31;4978949;28;20206;-42
2022/12/12 02:06:04;;;;;;;11.98;9.80;;;;;;;-1.61;100.00;101135.81;4976325;28;20236;-44
2022/12/12 02:08:31;;;;;;;13.55;10.13;;;;;;;-1.65;100.00;101126.09;4976755;28;20204;-40
2022/12/12 02:10:56;;;;;;;12.18;9.93;;;;;;;-1.64;100.00;101132.22;4978576;28;20217;-43
2022/12/12 02:17:11;;;;;;;13.15;10.35;;;;;;;-1.74;100.00;101129.47;4985233;28;20229;-42
2022/12/12 02:19:55;;;;;;;11.73;9.35;;;;;;;-1.75;100.00;101134.69;4983028;28;20200;-43
2022/12/12 02:22:32;;;;;;;12.85;10.25;;;;;;;-1.77;100.00;101126.78;4981069;28;20661;-43
2022/12/12 02:25:16;;;;;;;13.07;8.95;;;;;;;-1.74;100.00;101129.47;4973795;28;20260;-43
2022/12/12 02:27:53;;;;;;;11.55;9.80;;;;;;;-1.77;100.00;101133.78;4985588;28;20206;-43
2022/12/12 02:30:22;;;;;;;12.75;9.48;;;;;;;-1.81;100.00;101132.84;4978627;28;20212;-43
2022/12/12 02:33:23;;;;;;;10.18;9.07;;;;;;;-1.84;100.00;101119.66;4974939;28;20182;-43
2022/12/12 02:36:10;;;;;;;9.50;8.00;;;;;;;-1.85;100.00;101128.41;4986724;28;20235;-43
2022/12/12 02:38:48;;;;;;;11.35;8.80;;;;;;;-1.89;100.00;101126.56;4971010;28;20193;-43
2022/12/12 02:41:34;;;;;;;10.02;8.18;;;;;;;-1.90;100.00;101120.44;4981332;28;20218;-43
2022/12/12 02:44:32;;;;;;;9.88;8.88;;;;;;;-1.91;100.00;101125.66;4985035;28;20184;-42
2022/12/12 02:47:10;;;;;;;10.13;7.40;;;;;;;-1.92;100.00;101130.03;4981691;28;20667;-42
2022/12/12 02:49:44;;;;;;;10.50;8.10;;;;;;;-1.90;100.00;101132.69;4976470;28;20202;-43
2022/12/12 02:52:10;;;;;;;10.60;8.48;;;;;;;-1.91;100.00;101128.28;4984119;28;20216;-44
2022/12/12 02:54:37;;;;;;;10.77;8.45;;;;;;;-1.92;100.00;101131.78;4985689;28;20190;-44
2022/12/12 02:57:03;;;;;;;9.60;8.23;;;;;;;-1.92;100.00;101129.16;4976833;28;20654;-42
2022/12/12 02:59:40;;;;;;;9.77;8.18;;;;;;;-1.93;100.00;101124.75;4976203;28;20186;-44
2022/12/12 03:02:23;;;;;;;10.65;8.50;;;;;;;-1.96;100.00;101129.97;4977074;28;20197;-44
2022/12/12 03:08:02;;;;;;;12.65;8.95;;;;;;;-1.98;100.00;101137.81;4974721;28;20189;-41
2022/12/12 03:10:56;;;;;;;12.20;8.25;;;;;;;-1.99;100.00;101133.41;4978690;28;20205;-43
2022/12/12 03:13:44;;;;;;;10.05;8.88;;;;;;;-2.00;100.00;101143.88;4972711;28;20673;-44
2022/12/12 03:16:19;;;;;;;12.70;8.85;;;;;;;-2.02;100.00;101135.09;4976468;28;20256;-44
2022/12/12 03:18:54;;;;;;;11.25;8.68;;;;;;;-2.09;100.00;101134.97;4986667;28;20382;-42
2022/12/12 03:21:23;;;;;;;10.07;8.15;;;;;;;-2.10;100.00;101138.47;4982282;28;20673;-44
2022/12/12 03:23:54;;;;;;;10.48;8.23;;;;;;;-2.09;100.00;101132.34;4981413;28;20198;-40
2022/12/12 03:26:28;;;;;;;10.25;7.82;;;;;;;-2.10;100.00;101132.31;4991005;28;20189;-44
2022/12/12 03:29:05;;;;;;;9.68;8.10;;;;;;;-2.15;100.00;101131.34;4980706;28;20522;-44
2022/12/12 03:31:33;;;;;;;9.55;8.40;;;;;;;-2.10;100.00;101127.97;4982584;28;20209;-43
2022/12/12 03:34:07;;;;;;;9.25;7.43;;;;;;;-2.18;100.00;101133.94;4980946;28;20224;-43
2022/12/12 03:36:40;;;;;;;9.70;8.13;;;;;;;-2.20;100.00;101126.03;4977959;28;20284;-44
2022/12/12 03:39:32;;;;;;;8.35;7.15;;;;;;;-2.18;100.00;101123.44;4979852;28;20658;-43
2022/12/12 03:42:46;;;;;;;10.80;8.75;;;;;;;-2.24;100.00;101134.69;4976001;28;20701;-42
2022/12/12 03:45:35;;;;;;;8.70;7.72;;;;;;;-2.23;100.00;101130.31;4968609;28;20197;-43
2022/12/12 03:48:16;;;;;;;9.18;7.80;;;;;;;-2.28;100.00;101132.88;4981244;28;20185;-41
2022/12/12 03:50:47;;;;;;;10.10;8.00;;;;;;;-2.30;100.00;101126.69;4965994;28;20206;-42
2022/12/12 03:53:25;;;;;;;9.68;8.02;;;;;;;-2.30;100.00;101130.22;4976685;28;20194;-43
2022/12/12 03:55:54;;;;;;;10.27;8.30;;;;;;;-2.32;100.00;101128.41;4976050;28;20181;-43
2022/12/12 03:58:29;;;;;;;8.55;7.60;;;;;;;-2.29;100.00;101138.97;4989099;28;20194;-43
2022/12/12 04:00:57;;;;;;;9.98;7.55;;;;;;;-2.34;100.00;101140.63;4978788;28;20205;-42
2022/12/12 04:03:37;;;;;;;9.65;8.32;;;;;;;-2.33;100.00;101139.78;4990817;28;20217;-43
2022/12/12 04:06:25;;;;;;;9.85;8.20;;;;;;;-2.34;100.00;101138.91;4981611;28;20300;-41
2022/12/12 04:15:02;;;;;;;9.00;7.95;;;;;;;-2.39;100.00;101143.16;4982301;28;20194;-43
2022/12/12 04:17:40;;;;;;;10.95;8.13;;;;;;;-2.40;100.00;101138.78;4977387;28;20193;-43
2022/12/12 04:23:17;;;;;;;9.85;8.77;;;;;;;-2.40;100.00;101145.78;4981337;28;20205;-45
2022/12/12 04:28:51;;;;;;;10.05;7.93;;;;;;;-2.50;100.00;101135.06;4975504;28;20260;-44
2022/12/12 04:31:22;;;;;;;10.43;8.65;;;;;;;-2.54;100.00;101135.84;4984013;28;20208;-42
2022/12/12 04:33:54;;;;;;;10.15;8.57;;;;;;;-2.59;100.00;101134.00;4983330;28;20830;-43
2022/12/12 04:36:21;;;;;;;11.98;8.68;;;;;;;-2.59;100.00;101144.50;4976071;28;20189;-44
2022/12/12 04:38:49;;;;;;;10.65;8.02;;;;;;;-2.58;100.00;101139.31;4981310;28;20177;-42
2022/12/12 04:41:17;;;;;;;12.75;8.65;;;;;;;-2.62;100.00;101134.84;4977124;28;20221;-44
2022/12/12 04:43:46;;;;;;;11.32;8.68;;;;;;;-2.63;100.00;101138.31;4987928;28;20574;-44
2022/12/12 04:46:24;;;;;;;9.40;8.38;;;;;;;-2.66;100.00;101138.25;4980407;28;20200;-43
2022/12/12 04:48:57;;;;;;;9.88;8.07;;;;;;;-2.71;100.00;101134.66;4983853;28;20262;-45
2022/12/12 04:51:33;;;;;;;8.63;7.72;;;;;;;-2.72;100.00;101140.75;4984789;28;20205;-43
2022/12/12 04:54:08;;;;;;;8.73;7.63;;;;;;;-2.75;100.00;101141.56;4992559;28;20186;-45
2022/12/12 04:56:36;;;;;;;8.30;7.50;;;;;;;-2.73;100.00;101144.22;4976271;28;20185;-44
2022/12/12 04:59:03;;;;;;;9.32;8.07;;;;;;;-2.77;100.00;101145.88;4981807;28;20188;-42
2022/12/12 05:01:50;;;;;;;8.10;7.28;;;;;;;-2.79;100.00;101146.72;4983506;28;20336;-43
2022/12/12 05:04:30;;;;;;;11.00;7.55;;;;;;;-2.83;100.00;101161.47;4985116;28;20257;-44
2022/12/12 05:07:08;;;;;;;8.07;7.28;;;;;;;-2.85;100.00;101162.31;4978000;28;20182;-42
2022/12/12 05:09:34;;;;;;;8.57;7.30;;;;;;;-2.87;100.00;101161.38;4981572;28;20182;-43
2022/12/12 05:12:00;;;;;;;8.23;7.32;;;;;;;-3.05;100.00;101162.75;4977050;28;20182;-43
2022/12/12 05:14:26;;;;;;;9.65;8.27;;;;;;;-3.22;100.00;101164.09;4980482;28;20620;-44
2022/12/12 05:16:56;;;;;;;8.95;7.97;;;;;;;-3.36;100.00;101166.41;4984271;28;20567;-44
2022/12/12 05:19:21;;;;;;;8.52;7.15;;;;;;;-3.32;100.00;101161.28;4978994;28;20230;-44
2022/12/12 05:21:46;;;;;;;8.40;7.25;;;;;;;-3.27;100.00;101161.38;4980255;28;20251;-44
2022/12/12 05:24:12;;;;;;;8.07;7.00;;;;;;;-3.27;100.00;101161.38;4983809;28;20210;-43
2022/12/12 05:26:38;;;;;;;8.18;7.25;;;;;;;-3.28;100.00;101161.34;4982317;28;20193;-43
2022/12/12 05:29:04;;;;;;;7.88;7.07;;;;;;;-3.48;100.00;101161.75;4977705;28;20190;-41
2022/12/12 05:31:29;;;;;;;7.40;6.70;;;;;;;-3.48;100.00;101174.84;4978131;28;20308;-42
2022/12/12 05:33:55;;;;;;;8.32;6.75;;;;;;;-3.44;100.00;101152.22;4979136;28;20653;-43
2022/12/12 05:36:21;;;;;;;7.22;6.35;;;;;;;-3.43;100.00;101164.47;4982321;28;20189;-42
2022/12/12 05:38:47;;;;;;;7.30;6.22;;;;;;;-3.41;100.00;101147.06;4981191;28;20189;-41
2022/12/12 05:41:14;;;;;;;8.02;6.97;;;;;;;-3.43;100.00;101160.13;4982843;28;20197;-41
2022/12/12 05:43:39;;;;;;;9.82;6.53;;;;;;;-3.51;100.00;101159.06;4975604;28;20214;-43
2022/12/12 05:46:06;;;;;;;8.27;6.80;;;;;;;-3.66;100.00;101170.03;4985086;28;20288;-42
2022/12/12 05:48:32;;;;;;;9.48;6.63;;;;;;;-3.89;100.00;101163.31;4974826;28;20336;-43
2022/12/12 05:51:00;;;;;;;6.90;6.20;;;;;;;-4.05;100.00;101173.38;4976536;28;20237;-42
2022/12/12 05:53:26;;;;;;;7.28;6.55;;;;;;;-3.99;100.00;101167.44;4981528;28;20279;-43
2022/12/12 05:55:51;;;;;;;7.28;6.22;;;;;;;-4.05;100.00;101169.88;4976251;28;20382;-44
2022/12/12 05:58:18;;;;;;;9.18;6.75;;;;;;;-4.10;100.00;101163.66;4981531;28;20636;-45
2022/12/12 06:00:47;;;;;;;7.60;6.75;;;;;;;-4.03;100.00;101169.06;4989769;28;20703;-42
2022/12/12 06:03:12;;;;;;;7.07;6.22;;;;;;;-4.02;100.00;101173.50;4982821;28;20197;-45
2022/12/12 06:05:38;;;;;;;7.75;6.95;;;;;;;-4.23;100.00;101178.13;4972582;28;20189;-43
2022/12/12 06:08:03;;;;;;;7.85;7.05;;;;;;;-4.29;100.00;101180.56;4978323;28;20177;-45
2022/12/12 06:10:29;;;;;;;8.20;7.13;;;;;;;-4.22;100.00;101183.41;4975914;28;20267;-43
2022/12/12 06:12:54;;;;;;;7.57;5.65;;;;;;;-4.17;100.00;101186.16;4982404;28;20582;-43
2022/12/12 06:15:20;;;;;;;6.82;6.13;;;;;;;-4.14;100.00;101186.22;4977131;28;20768;-43
2022/12/12 06:17:45;;;;;;;7.68;6.72;;;;;;;-4.09;100.00;101183.72;4977465;28;20654;-42
2022/12/12 06:20:11;;;;;;;10.55;6.93;;;;;;;-4.16;100.00;101191.41;4983065;28;20300;-43
2022/12/12 06:22:36;;;;;;;7.13;6.32;;;;;;;-4.12;100.00;101196.75;4980045;28;20332;-42
2022/12/12 06:25:02;;;;;;;8.48;7.32;;;;;;;-4.03;100.00;101200.47;4973549;28;20355;-44
2022/12/12 06:27:28;;;;;;;7.53;6.65;;;;;;;-4.19;100.00;101201.81;4972982;28;20291;-42
2022/12/12 06:29:53;;;;;;;8.82;6.63;;;;;;;-4.26;100.00;101193.75;4975896;28;20193;-42
2022/12/12 06:32:19;;;;;;;10.18;8.00;;;;;;;-4.25;100.00;101201.63;4981764;28;20181;-41
2022/12/12 06:34:44;;;;;;;8.98;7.47;;;;;;;-4.12;100.00;101202.84;4976823;28;20272;-42
2022/12/12 06:37:09;;;;;;;8.90;7.60;;;;;;;-4.11;100.00;101204.66;4975951;28;20324;-42
2022/12/12 06:39:36;;;;;;;10.70;9.07;;;;;;;-4.28;100.00;101206.78;4971157;28;20264;-45
2022/12/12 06:42:01;;;;;;;11.82;8.75;;;;;;;-4.29;100.00;101204.13;4971639;28;20599;-47
2022/12/12 06:44:27;;;;;;;9.95;8.10;;;;;;;-4.19;100.00;101209.66;4971472;28;20182;-45
2022/12/12 06:46:52;;;;;;;11.95;8.70;;;;;;;-4.24;100.00;101219.09;4971325;28;20186;-43
2022/12/12 06:49:18;;;;;;;11.00;8.93;;;;;;;-4.31;100.00;101218.88;4971053;28;20589;-46
2022/12/12 06:51:43;;;;;;;12.52;8.95;;;;;;;-4.30;100.00;101210.22;4970707;28;20239;-49
2022/12/12 06:54:11;;;;;;;10.32;8.55;;;;;;;-4.19;100.00;101216.63;4972543;28;20528;-42
2022/12/12 06:56:37;;;;;;;8.95;7.53;;;;;;;-4.09;100.00;101207.28;4974814;28;20229;-44
2022/12/12 06:59:02;;;;;;;10.52;8.32;;;;;;;-4.09;100.00;101204.66;4974904;28;20688;-45
2022/12/12 07:01:28;;;;;;;10.13;8.10;;;;;;;-4.20;100.00;101213.13;4974704;28;20201;-49
2022/12/12 07:03:53;;;;;;;11.50;8.88;;;;;;;-4.32;100.00;101218.00;4974882;28;20292;-44
2022/12/12 07:06:22;;;;;;;10.15;8.32;;;;;;;-4.29;100.00;101214.56;4989756;28;20626;-45
2022/12/12 07:08:47;;;;;;;11.68;8.32;;;;;;;-4.26;100.00;101207.72;4974718;28;20672;-44
2022/12/12 07:11:16;;;;;;;10.55;8.20;;;;;;;-4.27;100.00;101215.50;4974683;28;20186;-43
2022/12/12 07:13:42;;;;;;;12.95;8.23;;;;;;;-4.45;100.00;101211.53;4974850;28;20172;-44
2022/12/12 07:16:09;;;;;;;9.27;7.65;;;;;;;-4.56;100.00;101219.06;4974613;28;20535;-42
2022/12/12 07:18:35;;;;;;;11.52;8.70;;;;;;;-4.49;100.00;101227.09;4989818;28;20177;-43
2022/12/12 07:21:03;;;;;;;9.43;7.68;;;;;;;-4.48;100.00;101221.00;4974285;28;20672;-44
2022/12/12 07:23:29;;;;;;;12.20;8.60;;;;;;;-4.61;100.00;101223.28;4974076;28;20238;-50
2022/12/12 07:25:54;;;;;;;11.93;8.95;;;;;;;-4.49;100.00;101222.72;4974496;28;20212;-43
2022/12/12 07:28:20;;;;;;;10.77;8.68;;;;;;;-4.39;100.00;101222.16;4973841;28;20162;-42
2022/12/12 07:30:46;;;;;;;13.98;9.10;;;;;;;-4.38;100.00;101223.94;4974147;28;20182;-48
2022/12/12 07:33:15;;;;;;;10.75;8.60;;;;;;;-4.31;100.00;101230.22;4972564;28;20174;-46
2022/12/12 07:35:41;;;;;;;12.13;9.05;;;;;;;-4.28;100.00;101225.09;4974081;28;20241;-44
2022/12/12 07:38:08;;;;;;;12.48;8.70;;;;;;;-4.21;100.00;101234.00;4974151;28;20177;-43
2022/12/12 07:40:34;;;;;;;12.63;9.20;;;;;;;-4.20;100.00;101226.22;4973452;28;20221;-44
2022/12/12 07:42:59;;;;;;;17.38;11.98;;;;;;;-4.05;100.00;101224.84;4973878;28;20190;-46
2022/12/12 07:45:25;;;;;;;19.00;14.13;;;;;;;-3.99;100.00;101225.00;4973935;28;20313;-43
2022/12/12 07:47:51;;;;;;;17.73;12.93;;;;;;;-3.93;100.00;101227.81;4988781;28;20174;-44
2022/12/12 07:50:17;;;;;;;18.13;12.57;;;;;;;-3.94;100.00;101241.72;4972178;28;20209;-45
2022/12/12 07:52:42;;;;;;;14.77;10.43;;;;;;;-3.93;100.00;101238.28;4973362;28;20158;-45
2022/12/12 07:55:08;;;;;;;16.65;12.38;;;;;;;-3.93;100.00;101238.28;4973873;28;20621;-44
2022/12/12 07:57:34;;;;;;;14.65;11.05;;;;;;;-3.94;100.00;101242.63;4973101;28;20250;-44
2022/12/12 08:00:00;;;;;;;15.77;11.93;;;;;;;-3.91;100.00;101243.53;4973464;28;20202;-44
2022/12/12 08:02:25;;;;;;;15.40;12.00;;;;;;;-4.00;100.00;101242.47;4973800;28;20313;-45
2022/12/12 08:04:51;;;;;;;26.07;21.00;;;;;;;-3.77;100.00;101247.41;4972469;28;20781;-47
2022/12/12 08:07:17;;;;;;;23.20;17.00;;;;;;;-3.71;100.00;101239.72;4973405;28;20273;-48
2022/12/12 08:09:42;;;;;;;19.15;14.65;;;;;;;-3.74;100.00;101235.31;4973000;28;20265;-49
2022/12/12 08:12:08;;;;;;;19.50;14.13;;;;;;;-3.65;100.00;101239.91;4988078;28;20169;-43
2022/12/12 08:14:33;;;;;;;21.52;14.68;;;;;;;-3.58;100.00;101243.56;4973228;28;20171;-44
2022/12/12 08:16:59;;;;;;;22.63;15.20;;;;;;;-3.48;100.00;101242.06;4988085;28;20170;-43
2022/12/12 08:19:25;;;;;;;19.95;15.25;;;;;;;-3.45;100.00;101243.03;4973549;28;20181;-47
2022/12/12 08:21:50;;;;;;;25.98;16.65;;;;;;;-3.40;100.00;101240.53;4973271;28;20202;-47
2022/12/12 08:24:17;;;;;;;21.15;16.00;;;;;;;-3.35;100.00;101241.50;4973406;28;20202;-44
2022/12/12 08:26:43;;;;;;;20.88;15.38;;;;;;;-3.34;100.00;101243.31;4973335;28;20659;-43
2022/12/12 08:29:10;;;;;;;19.92;14.77;;;;;;;-3.28;100.00;101237.31;4973323;28;20170;-44
2022/12/12 08:31:37;;;;;;;22.15;15.65;;;;;;;-3.24;100.00;101234.81;4973736;28;20198;-48
2022/12/12 08:34:03;;;;;;;20.88;14.77;;;;;;;-3.21;100.00;101247.13;4972881;28;20185;-45
2022/12/12 08:36:31;;;;;;;20.30;14.43;;;;;;;-3.17;100.00;101241.06;4971802;28;20665;-45
2022/12/12 08:38:58;;;;;;;20.05;15.02;;;;;;;-3.17;100.00;101238.44;4972889;28;20583;-44
2022/12/12 08:41:24;;;;;;;17.98;14.52;;;;;;;-3.14;100.00;101241.16;4971624;28;20332;-44
2022/12/12 08:43:50;;;;;;;22.35;15.27;;;;;;;-3.08;100.00;101232.53;4973058;28;20292;-44
2022/12/12 08:46:17;;;;;;;20.92;13.80;;;;;;;-2.98;100.00;101240.66;4973162;28;20170;-43
2022/12/12 08:48:43;;;;;;;21.42;14.98;;;;;;;-2.92;100.00;101232.97;4987664;28;20170;-48
2022/12/12 08:51:08;;;;;;;20.42;15.82;;;;;;;-2.86;100.00;101223.44;4987862;28;20202;-46
2022/12/12 08:53:34;;;;;;;20.17;14.02;;;;;;;-2.80;100.00;101221.88;4972774;28;20166;-45
2022/12/12 08:56:00;;;;;;;21.05;14.43;;;;;;;-2.78;100.00;101225.38;4972962;28;20178;-44
2022/12/12 08:58:25;;;;;;;18.60;13.18;;;;;;;-2.71;100.00;101231.69;4972810;28;20559;-43
2022/12/12 09:00:51;;;;;;;18.58;13.88;;;;;;;-2.64;100.00;101228.34;4972557;28;20182;-44
2022/12/12 09:03:18;;;;;;;22.58;15.18;;;;;;;-2.62;100.00;101246.75;4972566;28;20194;-49
2022/12/12 09:05:44;;;;;;;22.25;15.35;;;;;;;-2.56;100.00;101224.16;4971065;28;20269;-49
2022/12/12 09:08:11;;;;;;;19.90;15.15;;;;;;;-2.56;100.00;101239.00;4972717;28;20198;-46
2022/12/12 09:10:39;;;;;;;19.95;15.07;;;;;;;-2.55;100.00;101244.28;4972702;28;20245;-46
2022/12/12 09:13:06;;;;;;;20.23;15.43;;;;;;;-2.58;100.00;101241.59;4972553;28;20534;-46
2022/12/12 09:15:36;;;;;;;21.42;15.38;;;;;;;-2.46;100.00;101234.84;4987534;28;20823;-43
2022/12/12 09:18:02;;;;;;;23.60;15.68;;;;;;;-2.54;100.00;101242.53;4971560;28;20225;-50
2022/12/12 09:20:28;;;;;;;21.35;16.15;;;;;;;-2.51;100.00;101245.25;4972382;28;20194;-48
2022/12/12 09:22:53;;;;;;;23.05;16.65;;;;;;;-2.47;100.00;101233.06;4972300;28;20566;-45
2022/12/12 09:25:20;;;;;;;24.45;16.70;;;;;;;-2.36;100.00;101242.03;4972074;28;20204;-45
2022/12/12 09:27:46;;;;;;;23.63;16.60;;;;;;;-2.24;100.00;101244.94;4972578;28;20312;-45
2022/12/12 09:30:12;;;;;;;23.85;16.85;;;;;;;-2.18;100.00;101255.56;4972125;28;20194;-43
2022/12/12 09:32:38;;;;;;;21.15;15.65;;;;;;;-2.36;100.00;101240.31;4972280;28;20561;-44
2022/12/12 09:35:04;;;;;;;24.02;16.92;;;;;;;-2.26;100.00;101245.75;4972315;28;20252;-44
2022/12/12 09:37:29;;;;;;;21.80;16.02;;;;;;;-2.19;100.00;101253.75;4986700;28;20181;-44
2022/12/12 09:39:55;;;;;;;23.60;16.70;;;;;;;-2.26;100.00;101240.50;4972086;28;20202;-47
2022/12/12 09:42:23;;;;;;;26.60;17.92;;;;;;;-2.28;100.00;101249.22;4971751;28;20701;-46
2022/12/12 09:44:52;;;;;;;26.23;17.65;;;;;;;-2.28;100.00;101258.84;4972026;28;20213;-48
2022/12/12 09:47:30;;;;;;;26.88;18.52;;;;;;;-2.23;100.00;101254.59;4971906;28;20269;-43
2022/12/12 09:50:03;;;;;;;28.90;19.20;;;;;;;-2.23;100.00;101259.84;4972155;28;20715;-44
2022/12/12 09:52:32;;;;;;;25.10;17.83;;;;;;;-2.01;100.00;101255.00;4972101;28;20186;-43
2022/12/12 09:54:59;;;;;;;23.33;16.92;;;;;;;-1.82;100.00;101259.75;4971681;28;20217;-44
2022/12/12 09:57:43;;;;;;;24.85;16.60;;;;;;;-1.85;100.00;101249.19;4971853;28;20273;-43
2022/12/12 10:00:14;;;;;;;20.05;15.48;;;;;;;-1.69;100.00;101240.75;4971571;28;20571;-45
2022/12/12 10:02:48;;;;;;;23.10;16.02;;;;;;;-1.68;100.00;101242.53;4971579;28;20189;-46
2022/12/12 10:05:29;;;;;;;20.20;14.75;;;;;;;-1.52;100.00;101243.69;4971789;28;20172;-45
2022/12/12 10:08:03;;;;;;;20.13;14.05;;;;;;;-1.51;100.00;101245.47;4986373;28;20178;-44
2022/12/12 10:10:38;;;;;;;20.38;14.90;;;;;;;-1.64;100.00;101248.72;4971716;28;20641;-45
2022/12/12 10:13:10;;;;;;;20.40;15.30;;;;;;;-1.56;100.00;101246.22;4971484;28;20173;-43
2022/12/12 10:15:39;;;;;;;20.90;15.70;;;;;;;-1.54;100.00;101234.00;4971719;28;20169;-45
2022/12/12 10:18:34;;;;;;;20.60;15.20;;;;;;;-1.63;100.00;101239.09;4971732;28;20174;-42
2022/12/12 10:21:04;;;;;;;19.23;14.55;;;;;;;-1.56;100.00;101244.47;4967899;28;20208;-41
2022/12/12 10:23:33;;;;;;;19.13;13.65;;;;;;;-1.51;100.00;101228.78;4971553;28;20819;-41
2022/12/12 10:26:05;;;;;;;21.80;15.35;;;;;;;-1.66;100.00;101232.06;4986217;28;20178;-50
2022/12/12 10:28:31;;;;;;;21.00;14.93;;;;;;;-1.62;100.00;101230.34;4971616;28;20637;-44
2022/12/12 10:31:39;;;;;;;22.23;16.42;;;;;;;-1.66;100.00;101222.44;4971354;28;20194;-45
2022/12/12 10:34:28;;;;;;;21.42;15.10;;;;;;;-1.64;100.00;101224.19;4930854;29;20218;-43
2022/12/12 10:37:03;;;;;;;23.65;15.20;;;;;;;-1.68;100.00;101226.75;4930390;29;20180;-47
2022/12/12 10:39:55;;;;;;;20.63;14.77;;;;;;;-1.55;100.00;101229.59;4959944;28;20205;-46
2022/12/12 10:42:40;;;;;;;21.15;14.68;;;;;;;-1.57;100.00;101220.81;4971452;28;20675;-42
2022/12/12 10:45:29;;;;;;;22.42;15.13;;;;;;;-1.51;100.00;101226.16;4971253;28;20162;-43
2022/12/12 10:47:55;;;;;;;21.95;15.10;;;;;;;-1.59;100.00;101225.16;4971335;28;20171;-41
2022/12/12 10:50:24;;;;;;;20.23;15.32;;;;;;;-1.56;100.00;101220.84;4971016;28;20208;-42
2022/12/12 10:52:50;;;;;;;20.17;15.07;;;;;;;-1.46;100.00;101221.91;4971418;28;20645;-47
2022/12/12 10:55:36;;;;;;;19.85;14.63;;;;;;;-1.51;100.00;101218.28;4971069;28;20174;-44
2022/12/12 10:58:03;;;;;;;20.35;14.32;;;;;;;-1.47;100.00;101215.72;4971321;28;20256;-41
2022/12/12 11:00:38;;;;;;;24.20;16.33;;;;;;;-1.59;100.00;101220.78;4970914;28;20213;-42
2022/12/12 11:03:28;;;;;;;22.27;14.95;;;;;;;-1.49;100.00;101219.19;4971226;28;20216;-42
2022/12/12 11:06:01;;;;;;;19.50;15.20;;;;;;;-1.60;100.00;101223.38;4971124;28;20166;-42
2022/12/12 11:08:35;;;;;;;18.83;15.00;;;;;;;-1.51;100.00;101221.81;4971220;28;20158;-43
2022/12/12 11:11:13;;;;;;;20.65;15.65;;;;;;;-1.45;100.00;101216.63;4971303;28;20190;-45
2022/12/12 11:14:04;;;;;;;20.42;14.57;;;;;;;-1.40;100.00;101222.00;4969386;28;20677;-46
2022/12/12 11:16:40;;;;;;;22.52;16.75;;;;;;;-1.42;100.00;101214.94;4970689;28;20282;-43
2022/12/12 11:19:20;;;;;;;19.98;15.55;;;;;;;-1.55;100.00;101220.00;4971089;28;20613;-41
2022/12/12 11:21:47;;;;;;;18.20;14.55;;;;;;;-1.38;100.00;101212.38;4971270;28;20257;-43
2022/12/12 11:24:16;;;;;;;22.50;16.02;;;;;;;-1.29;100.00;101216.91;4971117;28;20583;-43
2022/12/12 11:26:50;;;;;;;19.85;14.73;;;;;;;-1.21;100.00;101209.16;4970986;28;20684;-42
2022/12/12 11:29:27;;;;;;;22.02;15.63;;;;;;;-1.18;100.00;101217.97;4971184;28;20551;-42
2022/12/12 11:31:54;;;;;;;18.45;14.20;;;;;;;-1.12;100.00;101207.53;4970632;28;20208;-42
2022/12/12 11:34:23;;;;;;;19.38;14.80;;;;;;;-1.17;100.00;101208.34;4971141;28;20198;-41
2022/12/12 11:36:49;;;;;;;18.50;14.48;;;;;;;-1.05;100.00;101198.91;4970563;28;20637;-45
2022/12/12 11:39:18;;;;;;;19.60;14.95;;;;;;;-1.13;100.00;101202.28;4996747;28;20175;-43